createdAt,value
2018-03-04T00:00:25.071Z,123.57
2018-03-04T00:02:52.601Z,119.97
2018-03-04T00:05:20.909Z,120.03
2018-03-04T00:07:48.431Z,110.77
2018-03-04T00:10:16.976Z,117.63
2018-03-04T00:12:44.612Z,105.80
2018-03-04T00:15:12.141Z,118.63
2018-03-04T00:17:40.616Z,113.73
2018-03-04T00:20:08.373Z,110.50
2018-03-04T00:22:41.650Z,118.37
2018-03-04T00:25:09.911Z,109.47
2018-03-04T00:27:37.784Z,108.13
2018-03-04T00:30:06.221Z,119.07
2018-03-04T00:32:34.410Z,111.17
2018-03-04T00:35:02.210Z,112.80
2018-03-04T00:37:29.799Z,106.23
2018-03-04T00:39:58.751Z,112.30
2018-03-04T00:42:26.285Z,110.33
2018-03-04T00:44:53.832Z,105.73
2018-03-04T00:47:21.359Z,119.27
2018-03-04T00:49:48.892Z,99.93
2018-03-04T00:52:16.414Z,111.10
2018-03-04T00:54:44.032Z,105.37
2018-03-04T00:57:11.695Z,96.83
2018-03-04T00:59:40.071Z,100.40
2018-03-04T01:02:08.721Z,95.80
2018-03-04T01:04:36.428Z,95.57
2018-03-04T01:07:05.831Z,88.40
2018-03-04T01:09:34.701Z,102.17
2018-03-04T01:12:03.152Z,90.50
2018-03-04T01:14:31.122Z,93.93
2018-03-04T01:16:59.015Z,89.70
2018-03-04T01:19:26.529Z,88.77
2018-03-04T01:21:54.056Z,81.63
2018-03-04T01:24:21.588Z,80.97
2018-03-04T01:26:49.138Z,87.83
2018-03-04T01:29:16.672Z,87.37
2018-03-04T01:31:44.308Z,83.90
2018-03-04T01:34:12.731Z,83.77
2018-03-04T01:36:40.506Z,90.67
2018-03-04T01:39:08.154Z,89.10
2018-03-04T01:41:36.330Z,80.43
2018-03-04T01:44:04.608Z,81.70
2018-03-04T01:46:32.381Z,79.70
2018-03-04T01:48:59.945Z,82.93
2018-03-04T01:51:39.677Z,81.20
2018-03-04T01:54:07.486Z,78.67
2018-03-04T01:56:35.269Z,72.53
2018-03-04T01:59:04.799Z,71.33
2018-03-04T02:01:33.644Z,78.47
2018-03-04T02:04:01.187Z,79.60
2018-03-04T02:06:28.757Z,76.50
2018-03-04T02:08:56.281Z,81.70
2018-03-04T02:11:23.827Z,80.03
2018-03-04T02:13:51.355Z,80.37
2018-03-04T02:16:18.900Z,78.83
2018-03-04T02:18:46.421Z,77.90
2018-03-04T02:21:14.130Z,69.90
2018-03-04T02:23:43.478Z,75.93
2018-03-04T02:26:11.086Z,82.60
2018-03-04T02:28:38.800Z,78.00
2018-03-04T02:31:06.894Z,81.23
2018-03-04T02:33:35.594Z,82.90
2018-03-04T02:36:03.748Z,83.70
2018-03-04T02:38:31.414Z,82.63
2018-03-04T02:40:59.006Z,86.53
2018-03-04T02:43:26.534Z,85.00
2018-03-04T02:45:54.082Z,81.13
2018-03-04T02:48:21.627Z,92.13
2018-03-04T02:50:49.150Z,91.00
2018-03-04T02:53:16.701Z,78.23
2018-03-04T02:55:44.465Z,90.50
2018-03-04T02:58:13.127Z,83.63
2018-03-04T03:00:40.861Z,84.60
2018-03-04T03:03:08.544Z,89.67
2018-03-04T03:05:36.940Z,73.63
2018-03-04T03:08:05.609Z,85.97
2018-03-04T03:10:34.194Z,81.37
2018-03-04T03:13:03.805Z,83.23
2018-03-04T03:15:32.488Z,86.73
2018-03-04T03:18:00.957Z,82.03
2018-03-04T03:20:29.830Z,73.47
2018-03-04T03:22:58.153Z,79.90
2018-03-04T03:25:25.671Z,80.37
2018-03-04T03:27:53.965Z,82.47
2018-03-04T03:30:21.516Z,73.90
2018-03-04T03:32:49.099Z,71.27
2018-03-04T03:35:16.672Z,81.17
2018-03-04T03:37:44.233Z,75.47
2018-03-04T03:40:12.008Z,82.57
2018-03-04T03:42:41.294Z,81.50
2018-03-04T03:45:09.151Z,79.63
2018-03-04T03:47:38.447Z,84.17
2018-03-04T03:50:06.830Z,93.13
2018-03-04T03:52:34.912Z,91.57
2018-03-04T03:55:03.115Z,100.27
2018-03-04T03:57:31.814Z,90.20
2018-03-04T04:00:00.349Z,102.57
2018-03-04T04:02:27.885Z,89.57
2018-03-04T04:04:55.409Z,94.17
2018-03-04T04:07:22.960Z,96.17
2018-03-04T04:09:50.486Z,89.30
2018-03-04T04:12:18.016Z,85.43
2018-03-04T04:14:46.312Z,97.10
2018-03-04T04:17:14.083Z,89.47
2018-03-04T04:19:42.157Z,95.33
2018-03-04T04:22:10.026Z,75.97
2018-03-04T04:24:38.689Z,79.87
2018-03-04T04:27:06.884Z,86.57
2018-03-04T04:29:35.029Z,83.93
2018-03-04T04:32:03.305Z,85.93
2018-03-04T04:34:30.882Z,84.43
2018-03-04T04:37:00.280Z,87.77
2018-03-04T04:39:27.859Z,81.93
2018-03-04T04:41:55.394Z,78.23
2018-03-04T04:44:23.803Z,85.00
2018-03-04T04:46:51.334Z,85.60
2018-03-04T04:49:18.872Z,76.27
2018-03-04T04:51:47.184Z,86.00
2018-03-04T04:54:14.853Z,78.00
2018-03-04T04:56:42.561Z,83.60
2018-03-04T04:59:10.284Z,84.40
2018-03-04T05:01:39.074Z,83.40
2018-03-04T05:04:07.077Z,83.27
2018-03-04T05:06:35.017Z,77.17
2018-03-04T05:09:04.372Z,79.17
2018-03-04T05:11:32.386Z,84.80
2018-03-04T05:14:00.737Z,80.90
2018-03-04T05:16:29.066Z,87.17
2018-03-04T05:18:56.602Z,82.47
2018-03-04T05:21:24.536Z,89.07
2018-03-04T05:23:52.848Z,91.57
2018-03-04T05:26:20.369Z,93.40
2018-03-04T05:28:48.786Z,82.13
2018-03-04T05:31:16.315Z,88.50
2018-03-04T05:33:45.077Z,98.20
2018-03-04T05:36:12.800Z,94.77
2018-03-04T05:38:40.564Z,79.67
2018-03-04T05:41:08.366Z,89.27
2018-03-04T05:43:35.968Z,88.83
2018-03-04T05:46:05.136Z,95.10
2018-03-04T05:48:33.802Z,89.43
2018-03-04T05:51:01.582Z,90.07
2018-03-04T05:53:29.915Z,85.27
2018-03-04T05:55:57.464Z,93.60
2018-03-04T05:58:25.016Z,101.47
2018-03-04T06:00:52.566Z,100.30
2018-03-04T06:03:20.864Z,102.23
2018-03-04T06:05:49.401Z,114.60
2018-03-04T06:08:16.953Z,87.47
2018-03-04T06:10:44.542Z,84.00
2018-03-04T06:13:12.951Z,81.97
2018-03-04T06:15:40.552Z,85.33
2018-03-04T06:18:09.014Z,86.20
2018-03-04T06:20:37.595Z,92.20
2018-03-04T06:23:05.348Z,91.27
2018-03-04T06:25:33.214Z,94.77
2018-03-04T06:28:00.774Z,94.60
2018-03-04T06:30:29.052Z,85.70
2018-03-04T06:32:56.641Z,88.03
2018-03-04T06:35:25.301Z,95.00
2018-03-04T06:37:52.860Z,87.67
2018-03-04T06:40:20.384Z,85.87
2018-03-04T06:42:48.298Z,87.57
2018-03-04T06:45:15.825Z,91.53
2018-03-04T06:47:44.142Z,98.07
2018-03-04T06:50:12.401Z,89.33
2018-03-04T06:52:40.293Z,101.70
2018-03-04T06:55:07.931Z,91.67
2018-03-04T06:57:35.696Z,92.80
2018-03-04T07:00:04.198Z,84.57
2018-03-04T07:02:32.722Z,83.03
2018-03-04T07:05:00.308Z,79.43
2018-03-04T07:07:28.086Z,76.00
2018-03-04T07:09:55.618Z,82.80
2018-03-04T07:12:23.222Z,88.87
2018-03-04T07:14:50.744Z,77.93
2018-03-04T07:17:18.312Z,74.83
2018-03-04T07:19:46.095Z,73.90
2018-03-04T07:22:14.214Z,78.03
2018-03-04T07:24:42.906Z,81.40
2018-03-04T07:27:11.593Z,87.47
2018-03-04T07:29:39.618Z,74.97
2018-03-04T07:32:07.786Z,75.87
2018-03-04T07:34:36.366Z,76.43
2018-03-04T07:37:04.731Z,72.03
2018-03-04T07:39:32.920Z,68.83
2018-03-04T07:42:00.483Z,65.17
2018-03-04T07:44:28.102Z,58.07
2018-03-04T07:46:55.624Z,67.97
2018-03-04T07:49:23.210Z,75.73
2018-03-04T07:51:54.012Z,58.60
2018-03-04T07:54:21.542Z,58.63
2018-03-04T07:56:49.105Z,58.60
2018-03-04T07:59:16.967Z,58.07
2018-03-04T08:01:44.730Z,52.43
2018-03-04T08:04:12.433Z,49.87
2018-03-04T08:06:40.988Z,46.37
2018-03-04T08:09:08.867Z,43.27
2018-03-04T08:11:36.529Z,41.20
2018-03-04T08:14:04.532Z,38.03
2018-03-04T08:16:32.547Z,39.93
2018-03-04T08:19:00.228Z,41.97
2018-03-04T08:21:27.823Z,39.63
2018-03-04T08:23:55.499Z,36.17
2018-03-04T08:26:35.757Z,39.73
2018-03-04T08:29:04.068Z,34.83
2018-03-04T08:31:31.600Z,34.60
2018-03-04T08:33:59.898Z,34.90
2018-03-04T08:36:28.051Z,34.80
2018-03-04T08:38:56.662Z,30.63
2018-03-04T08:41:24.545Z,32.43
2018-03-04T08:43:52.297Z,28.67
2018-03-04T08:46:20.077Z,32.97
2018-03-04T08:48:50.142Z,27.67
2018-03-04T08:51:18.685Z,29.90
2018-03-04T08:53:46.376Z,32.67
2018-03-04T08:56:14.336Z,27.10
2018-03-04T08:58:42.953Z,25.33
2018-03-04T09:01:11.271Z,24.67
2018-03-04T09:03:39.028Z,21.70
2018-03-04T09:06:06.631Z,24.27
2018-03-04T09:08:34.240Z,20.67
2018-03-04T09:11:01.847Z,21.00
2018-03-04T09:13:29.413Z,18.03
2018-03-04T09:15:58.470Z,25.60
2018-03-04T09:18:26.313Z,20.07
2018-03-04T09:20:54.017Z,20.63
2018-03-04T09:23:23.323Z,21.57
2018-03-04T09:25:51.448Z,24.43
2018-03-04T09:28:19.612Z,20.77
2018-03-04T09:30:50.098Z,23.57
2018-03-04T09:33:18.857Z,26.83
2018-03-04T09:35:46.377Z,23.87
2018-03-04T09:38:14.188Z,22.37
2018-03-04T09:40:41.821Z,22.87
2018-03-04T09:43:09.458Z,22.37
2018-03-04T09:45:37.783Z,24.00
2018-03-04T09:48:06.269Z,25.93
2018-03-04T09:50:33.936Z,24.07
2018-03-04T09:53:01.612Z,22.43
2018-03-04T09:55:29.237Z,24.07
2018-03-04T09:57:57.228Z,25.93
2018-03-04T10:00:24.895Z,25.80
2018-03-04T10:02:52.620Z,24.23
2018-03-04T10:05:20.627Z,25.80
2018-03-04T10:07:48.697Z,24.17
2018-03-04T10:10:16.768Z,26.43
2018-03-04T10:12:45.228Z,24.10
2018-03-04T10:15:12.814Z,23.23
2018-03-04T10:17:40.514Z,25.03
2018-03-04T10:20:08.056Z,26.70
2018-03-04T10:22:35.602Z,24.43
2018-03-04T10:25:03.137Z,24.17
2018-03-04T10:27:30.703Z,22.87
2018-03-04T10:29:58.337Z,24.03
2018-03-04T10:32:26.866Z,21.07
2018-03-04T10:34:56.061Z,24.43
2018-03-04T10:37:23.837Z,26.03
2018-03-04T10:39:52.467Z,27.90
2018-03-04T10:42:20.644Z,20.47
2018-03-04T10:44:48.336Z,31.60
2018-03-04T10:47:16.824Z,30.20
2018-03-04T10:49:44.373Z,29.97
2018-03-04T10:52:11.905Z,29.30
2018-03-04T10:54:40.188Z,31.07
2018-03-04T10:57:08.474Z,29.97
2018-03-04T10:59:36.054Z,24.47
2018-03-04T11:02:04.485Z,36.53
2018-03-04T11:04:32.024Z,33.80
2018-03-04T11:06:59.655Z,37.67
2018-03-04T11:09:27.733Z,39.30
2018-03-04T11:11:55.398Z,43.87
2018-03-04T11:14:23.482Z,35.60
2018-03-04T11:16:51.469Z,39.13
2018-03-04T11:19:19.611Z,36.23
2018-03-04T11:21:48.911Z,36.67
2018-03-04T11:24:16.896Z,34.33
2018-03-04T11:26:44.421Z,36.30
2018-03-04T11:29:11.968Z,41.40
2018-03-04T11:31:40.256Z,39.60
2018-03-04T11:34:07.794Z,29.13
2018-03-04T11:36:36.116Z,30.73
2018-03-04T11:39:03.646Z,36.73
2018-03-04T11:41:31.936Z,35.27
2018-03-04T11:43:59.556Z,34.00
2018-03-04T11:46:27.128Z,35.93
2018-03-04T11:48:55.556Z,36.07
2018-03-04T11:51:23.178Z,35.97
2018-03-04T11:53:52.084Z,28.43
2018-03-04T11:56:19.974Z,28.60
2018-03-04T11:58:49.079Z,26.80
2018-03-04T12:01:17.758Z,23.00
2018-03-04T12:03:45.373Z,23.20
2018-03-04T12:06:13.689Z,22.37
2018-03-04T12:08:41.236Z,24.17
2018-03-04T12:11:08.805Z,25.53
2018-03-04T12:13:36.359Z,25.03
2018-03-04T12:16:03.882Z,27.73
2018-03-04T12:18:31.409Z,22.20
2018-03-04T12:20:59.054Z,27.90
2018-03-04T12:23:26.728Z,27.83
2018-03-04T12:25:55.245Z,25.00
2018-03-04T12:28:22.913Z,29.40
2018-03-04T12:30:51.553Z,26.20
2018-03-04T12:33:19.930Z,22.47
2018-03-04T12:35:49.138Z,23.30
2018-03-04T12:38:18.732Z,27.17
2018-03-04T12:40:46.409Z,25.47
2018-03-04T12:43:13.991Z,22.70
2018-03-04T12:45:41.571Z,26.13
2018-03-04T12:48:09.101Z,22.73
2018-03-04T12:50:36.662Z,27.70
2018-03-04T12:53:04.198Z,22.90
2018-03-04T12:55:31.773Z,23.57
2018-03-04T12:57:59.674Z,26.33
2018-03-04T13:00:28.312Z,24.13
2018-03-04T13:02:55.948Z,23.90
2018-03-04T13:05:23.747Z,22.80
2018-03-04T13:07:52.870Z,27.50
2018-03-04T13:10:20.989Z,26.57
2018-03-04T13:12:48.690Z,22.87
2018-03-04T13:15:16.747Z,25.30
2018-03-04T13:17:45.137Z,28.07
2018-03-04T13:20:13.002Z,26.47
2018-03-04T13:22:40.533Z,28.43
2018-03-04T13:25:08.090Z,29.27
2018-03-04T13:27:35.641Z,27.53
2018-03-04T13:30:03.177Z,28.93
2018-03-04T13:32:30.708Z,27.53
2018-03-04T13:34:58.615Z,26.17
2018-03-04T13:37:27.030Z,28.47
2018-03-04T13:39:54.906Z,28.43
2018-03-04T13:42:22.846Z,26.23
2018-03-04T13:44:52.278Z,27.33
2018-03-04T13:47:19.919Z,28.07
2018-03-04T13:49:47.616Z,28.60
2018-03-04T13:52:15.153Z,28.20
2018-03-04T13:54:42.688Z,31.40
2018-03-04T13:57:11.010Z,28.13
2018-03-04T13:59:38.555Z,31.97
2018-03-04T14:04:57.393Z,23.03
2018-03-04T14:07:25.037Z,20.70
2018-03-04T14:09:53.419Z,28.80
2018-03-04T14:12:21.424Z,26.87
2018-03-04T14:14:49.329Z,31.87
2018-03-04T14:17:17.061Z,23.50
2018-03-04T14:19:44.638Z,29.67
2018-03-04T14:22:12.166Z,26.73
2018-03-04T14:24:40.472Z,22.30
2018-03-04T14:27:08.017Z,26.57
2018-03-04T14:29:35.548Z,22.83
2018-03-04T14:32:03.854Z,20.87
2018-03-04T14:34:31.844Z,24.57
2018-03-04T14:36:59.419Z,20.47
2018-03-04T14:39:26.961Z,24.27
2018-03-04T14:41:54.540Z,21.47
2018-03-04T14:44:22.944Z,25.90
2018-03-04T14:46:51.259Z,21.80
2018-03-04T14:49:20.399Z,21.93
2018-03-04T14:51:49.281Z,25.97
2018-03-04T15:05:53.994Z,25.00
2018-03-04T15:08:21.529Z,22.07
2018-03-04T15:10:49.137Z,19.07
2018-03-04T15:13:16.690Z,19.53
2018-03-04T15:15:44.541Z,21.10
2018-03-04T15:18:12.475Z,22.90
2018-03-04T15:20:40.957Z,24.53
2018-03-04T15:23:08.522Z,21.63
2018-03-04T15:25:36.201Z,20.00
2018-03-04T15:28:06.321Z,20.30
2018-03-04T15:30:34.099Z,21.43
2018-03-04T15:33:03.286Z,22.40
2018-03-04T15:35:31.477Z,23.33
2018-03-04T15:38:00.518Z,23.13
2018-03-04T15:40:28.287Z,26.07
2018-03-04T15:42:55.825Z,19.37
2018-03-04T15:45:23.349Z,23.17
2018-03-04T15:47:50.908Z,21.30
2018-03-04T15:50:18.460Z,24.13
2018-03-04T15:52:46.046Z,23.00
2018-03-04T15:55:13.830Z,21.73
2018-03-04T15:57:42.365Z,20.17
2018-03-04T16:00:11.031Z,21.63
2018-03-04T16:02:40.025Z,20.57
2018-03-04T16:05:08.362Z,23.03
2018-03-04T16:07:36.773Z,22.27
2018-03-04T16:10:04.979Z,22.50
2018-03-04T16:12:32.542Z,24.17
2018-03-04T16:15:00.073Z,26.70
2018-03-04T16:17:28.385Z,24.97
2018-03-04T16:19:55.909Z,28.67
2018-03-04T16:22:24.286Z,21.90
2018-03-04T16:24:53.054Z,22.20
2018-03-04T16:27:20.588Z,25.27
2018-03-04T16:29:49.280Z,27.57
2018-03-04T16:32:16.898Z,28.63
2018-03-04T16:34:44.576Z,23.83
2018-03-04T16:37:12.552Z,28.00
2018-03-04T16:39:40.597Z,26.77
2018-03-04T16:42:08.993Z,26.27
2018-03-04T16:44:36.860Z,29.50
2018-03-04T16:47:05.037Z,29.87
2018-03-04T16:49:32.674Z,28.17
2018-03-04T16:52:00.197Z,24.73
2018-03-04T16:54:28.591Z,28.27
2018-03-04T16:56:56.113Z,27.30
2018-03-04T16:59:23.644Z,29.10
2018-03-04T17:01:51.217Z,25.47
2018-03-04T17:04:18.978Z,28.30
2018-03-04T17:06:46.767Z,27.07
2018-03-04T17:09:14.511Z,29.23
2018-03-04T17:11:42.142Z,23.90
2018-03-04T17:14:09.855Z,25.70
2018-03-04T17:16:37.689Z,25.60
2018-03-04T17:19:06.725Z,28.67
2018-03-04T17:21:35.801Z,23.20
2018-03-04T17:24:03.386Z,25.57
2018-03-04T17:26:31.002Z,26.00
2018-03-04T17:28:58.548Z,25.67
2018-03-04T17:31:26.859Z,25.03
2018-03-04T17:33:54.406Z,24.43
2018-03-04T17:36:21.934Z,24.73
2018-03-04T17:38:50.869Z,24.23
2018-03-04T17:41:18.404Z,24.40
2018-03-04T17:43:45.950Z,28.10
2018-03-04T17:46:14.626Z,24.57
2018-03-04T17:48:43.366Z,24.63
2018-03-04T17:51:11.326Z,23.53
2018-03-04T17:53:40.136Z,24.73
2018-03-04T17:56:07.797Z,26.03
2018-03-04T17:58:36.054Z,25.60
2018-03-04T18:01:03.677Z,27.30
2018-03-04T18:03:31.366Z,26.50
2018-03-04T18:05:59.657Z,27.07
2018-03-04T18:08:27.524Z,26.57
2018-03-04T18:10:55.873Z,29.40
2018-03-04T18:13:24.217Z,27.63
2018-03-04T18:15:51.837Z,26.73
2018-03-04T18:18:20.102Z,25.07
2018-03-04T18:20:48.043Z,26.47
2018-03-04T18:23:16.365Z,26.40
2018-03-04T18:25:44.154Z,25.37
2018-03-04T18:28:11.998Z,26.77
2018-03-04T18:30:40.174Z,24.80
2018-03-04T18:33:08.451Z,24.60
2018-03-04T18:35:37.533Z,24.33
2018-03-04T18:38:06.452Z,23.83
2018-03-04T18:40:34.756Z,24.17
2018-03-04T18:43:02.582Z,22.03
2018-03-04T18:45:30.165Z,21.23
2018-03-04T18:47:57.691Z,23.23
2018-03-04T18:50:25.213Z,23.47
2018-03-04T18:52:53.135Z,24.10
2018-03-04T18:55:20.658Z,22.47
2018-03-04T18:57:48.966Z,23.00
2018-03-04T19:00:16.560Z,21.73
2018-03-04T19:02:44.143Z,21.77
2018-03-04T19:05:12.670Z,19.70
2018-03-04T19:07:41.034Z,19.70
2018-03-04T19:10:09.441Z,17.97
2018-03-04T19:12:37.311Z,19.50
2018-03-04T19:15:05.984Z,19.77
2018-03-04T19:17:33.618Z,17.23
2018-03-04T19:20:01.921Z,19.93
2018-03-04T19:22:29.614Z,18.53
2018-03-04T19:24:58.271Z,18.93
2018-03-04T19:27:26.056Z,22.53
2018-03-04T19:29:53.634Z,19.83
2018-03-04T19:32:21.674Z,17.77
2018-03-04T19:34:49.248Z,19.17
2018-03-04T19:37:16.823Z,16.47
2018-03-04T19:39:44.338Z,15.07
2018-03-04T19:42:11.979Z,15.80
2018-03-04T19:44:39.758Z,14.57
2018-03-04T19:47:08.473Z,19.10
2018-03-04T19:49:36.334Z,18.00
2018-03-04T19:52:04.406Z,18.13
2018-03-04T19:54:32.856Z,13.03
2018-03-04T19:57:01.318Z,13.53
2018-03-04T19:59:29.948Z,9.60
2018-03-04T20:01:57.590Z,7.37
2018-03-04T20:04:25.870Z,9.17
2018-03-04T20:06:53.411Z,8.57
2018-03-04T20:09:21.691Z,8.83
2018-03-04T20:11:50.015Z,5.47
2018-03-04T20:14:17.548Z,6.97
2018-03-04T20:16:45.182Z,5.87
2018-03-04T20:19:13.497Z,6.30
2018-03-04T20:21:41.418Z,6.27
2018-03-04T20:24:09.929Z,6.20
2018-03-04T20:26:38.564Z,4.93
2018-03-04T20:29:07.578Z,5.93
2018-03-04T20:31:35.604Z,5.57
2018-03-04T20:34:03.401Z,6.73
2018-03-04T20:36:31.138Z,6.80
2018-03-04T20:38:58.794Z,6.53
2018-03-04T20:41:26.344Z,5.60
2018-03-04T20:43:53.888Z,7.43
2018-03-04T20:46:22.190Z,6.80
2018-03-04T20:48:49.730Z,5.50
2018-03-04T20:51:17.436Z,8.13
2018-03-04T20:53:45.502Z,5.93
2018-03-04T20:56:13.475Z,7.60
2018-03-04T20:58:41.141Z,5.97
2018-03-04T21:01:08.761Z,6.00
2018-03-04T21:03:36.543Z,5.20
2018-03-04T21:06:05.338Z,7.63
2018-03-04T21:08:32.877Z,8.10
2018-03-04T21:11:01.158Z,8.33
2018-03-04T21:13:28.735Z,6.00
2018-03-04T21:15:56.245Z,5.80
2018-03-04T21:18:24.534Z,4.60
2018-03-04T21:20:52.842Z,5.67
2018-03-04T21:23:20.374Z,7.00
2018-03-04T21:25:47.909Z,4.67
2018-03-04T21:28:15.850Z,5.83
2018-03-04T21:30:43.817Z,4.63
2018-03-04T21:33:11.405Z,4.27
2018-03-04T21:35:40.152Z,4.30
2018-03-04T21:38:08.446Z,4.47
2018-03-04T21:40:36.825Z,4.57
2018-03-04T21:43:04.985Z,4.73
2018-03-04T21:45:33.986Z,4.37
2018-03-04T21:48:02.442Z,3.87
2018-03-04T21:50:29.989Z,3.90
2018-03-04T21:52:57.509Z,3.30
2018-03-04T21:55:25.140Z,3.40
2018-03-04T21:57:52.679Z,3.13
2018-03-04T22:00:20.227Z,3.03
2018-03-04T22:02:48.519Z,3.17
2018-03-04T22:05:16.197Z,2.77
2018-03-04T22:07:44.034Z,2.20
2018-03-04T22:10:12.036Z,2.73
2018-03-04T22:12:40.173Z,2.10
2018-03-04T22:15:08.403Z,2.10
2018-03-04T22:17:37.396Z,2.33
2018-03-04T22:20:06.168Z,2.43
2018-03-04T22:22:35.161Z,2.00
2018-03-04T22:25:03.850Z,3.17
2018-03-04T22:27:31.406Z,2.80
2018-03-04T22:29:58.931Z,1.90
2018-03-04T22:32:27.209Z,2.93
2018-03-04T22:34:55.536Z,2.10
2018-03-04T22:37:23.054Z,4.37
2018-03-04T22:39:51.341Z,2.80
2018-03-04T22:42:18.894Z,2.43
2018-03-04T22:44:46.654Z,2.77
2018-03-04T22:47:15.881Z,3.07
2018-03-04T22:49:44.542Z,2.70
2018-03-04T22:52:12.129Z,2.97
2018-03-04T22:54:39.888Z,2.90
2018-03-04T22:57:07.984Z,4.23
2018-03-04T22:59:36.687Z,3.53
2018-03-04T23:02:05.034Z,2.50
2018-03-04T23:04:34.845Z,3.67
2018-03-04T23:07:02.413Z,3.57
2018-03-04T23:09:29.964Z,3.43
2018-03-04T23:11:57.509Z,3.77
2018-03-04T23:14:25.047Z,3.93
2018-03-04T23:16:53.335Z,4.43
2018-03-04T23:19:21.650Z,3.87
2018-03-04T23:21:49.191Z,4.63
2018-03-04T23:24:16.913Z,5.73
2018-03-04T23:26:44.908Z,4.77
2018-03-04T23:29:12.918Z,4.77
2018-03-04T23:31:41.613Z,5.53
2018-03-04T23:34:10.380Z,5.43
2018-03-04T23:36:38.404Z,5.20
2018-03-04T23:39:07.202Z,4.97
2018-03-04T23:41:35.292Z,6.80
2018-03-04T23:44:02.818Z,5.93
2018-03-04T23:46:30.340Z,5.63
2018-03-04T23:48:57.890Z,6.07
2018-03-04T23:51:25.420Z,6.13
2018-03-04T23:53:53.704Z,8.13
2018-03-04T23:56:21.236Z,4.70
2018-03-04T23:58:48.752Z,6.20
